Aeroporto :
LOGIN :

Iscrizione | Disclaimer

   EN    FR    IT 

 










Sommario :    VFR   VFR Marginale   IFR   IFR Intensivo   IFR Molto Intensivo
Visibilità : 
Base nubi : 
>= 8 km
>= 3000ft
5 / 8 km
1000 / 3000 ft
1500m / 5 km
500 / 1000 ft
800 / 1500m
200 / 500 ft
< 800m
< 200 ft
Simboli :   Temporali  Nebbia  Neve Forte  Precipitazioni Forti  Vento > 20 kt
SIGMETs :   Varie  Temporali  Ghiacco  Turbolenza  Onda orograficha  Ceneri Vulcaniche







- Altitudine del aeroporto : 297 ft


EGVP - Middle Wallop

ULTIMO METAR :
  • 220750Z 22008KT 9999 BKN011 20/17 Q1022 BECMG BKN015 RMK GRN BECMG WHT

METARs OBSOLETI :
  • 220720Z 21008KT 9999 BKN009 19/17 Q1022 TEMPO FEW010 RMK GRN TEMPO BLU
  • 220650Z 24005KT 9999 BKN009 SCT023 19/17 Q1022 TEMPO FEW010 RMK GRN TEMPO BLU
  • 220550Z 20006KT 9999 BKN009 BKN038 18/16 Q1021 RMK GRN

TAF TAF EGVP
Valido dal 22 a 06 ore il 22 a 15 ore UTC


220558Z 2206/2215 22006KT 9999 BKN035
TEMPO 2206/2209 BKN009
TEMPO 2209/2212 SCT015
ATIS : +44 1980 674 142
Nessun NOTAM noto per questo aeroporto.
1 SIGMET conosciuto per la FIR London (EGTT) :
 
Forte onda orograficha
EGTT SIGMET 02 VALID 220600/221000 EGRR
EGTT LONDON FIR SEV MTW FCST WI N5500 E00140 - N5224 W00120 - N5221 W00530 - N5500 W00530 - N5500 E00140 FL040/240 MOV N 05KT NC=



MetMap, La meteo Aeronautica in un colpo d'occhio ! - Copyright ORBIFLY Dicembre 2007 - Disclaimer

ORBIFLY MET'MAP TEAM :

Programmazione e sviluppo : Alexandra Zaïnal
Concezione e sviluppo : Baudouin d'Aumeries
Co-Programmazione e sviluppo : Marc-Olivier Méhu
Supporto tecnico e logistico : Manuel Goepfert
Aiuto per la traduzione : Arnaldo La Scala

Contatto : metmap@orbifly.com




FONTI E CREDITI :

   NOAA